createdAt,value
2023-04-01T00:04:13.416Z,7.5
2023-04-01T00:09:13.418Z,7.37
2023-04-01T00:14:13.389Z,7.37
2023-04-01T00:19:13.376Z,7.37
2023-04-01T00:24:13.392Z,7.31
2023-04-01T00:29:13.404Z,7.31
2023-04-01T00:34:13.382Z,7.25
2023-04-01T00:39:13.382Z,7.12
2023-04-01T00:44:13.378Z,7.12
2023-04-01T00:49:13.364Z,7
2023-04-01T00:54:13.376Z,6.81
2023-04-01T00:59:13.341Z,6.87
2023-04-01T01:04:13.349Z,6.81
2023-04-01T01:09:13.350Z,6.75
2023-04-01T01:14:13.335Z,6.68
2023-04-01T01:19:13.359Z,6.87
2023-04-01T01:24:13.325Z,6.93
2023-04-01T01:29:13.326Z,7
2023-04-01T01:34:13.362Z,7.18
2023-04-01T01:39:13.325Z,7.18
2023-04-01T01:44:13.303Z,7.12
2023-04-01T01:49:13.315Z,7.12
2023-04-01T01:54:13.302Z,7.18
2023-04-01T01:59:13.301Z,7.12
2023-04-01T02:04:13.338Z,7.18
2023-04-01T02:09:13.282Z,7.12
2023-04-01T02:14:13.277Z,7.12
2023-04-01T02:19:13.325Z,7.12
2023-04-01T02:24:13.267Z,7.18
2023-04-01T02:29:13.283Z,7.12
2023-04-01T02:34:13.298Z,7
2023-04-01T02:39:13.260Z,7
2023-04-01T02:44:13.275Z,7
2023-04-01T02:49:13.284Z,6.93
2023-04-01T02:54:13.257Z,6.87
2023-04-01T02:59:13.255Z,6.87
2023-04-01T03:04:13.257Z,6.93
2023-04-01T03:09:13.239Z,6.93
2023-04-01T03:14:13.235Z,7
2023-04-01T03:19:13.260Z,6.93
2023-04-01T03:24:13.235Z,6.93
2023-04-01T03:29:13.238Z,6.93
2023-04-01T03:34:13.268Z,7.06
2023-04-01T03:39:13.228Z,7.18
2023-04-01T03:44:13.219Z,7.18
2023-04-01T03:49:13.215Z,7.25
2023-04-01T03:54:13.193Z,7.31
2023-04-01T03:59:13.190Z,7.18
2023-04-01T04:04:13.221Z,7.06
2023-04-01T04:09:13.283Z,6.87
2023-04-01T04:14:13.190Z,6.93
2023-04-01T04:19:13.189Z,6.93
2023-04-01T04:24:13.180Z,6.87
2023-04-01T04:29:13.185Z,6.87
2023-04-01T04:34:13.177Z,6.93
2023-04-01T04:39:13.203Z,6.93
2023-04-01T04:44:13.156Z,6.81
2023-04-01T04:49:13.159Z,6.87
2023-04-01T04:54:13.168Z,6.81
2023-04-01T04:59:13.153Z,6.87
2023-04-01T05:04:13.156Z,6.87
2023-04-01T05:09:13.167Z,6.93
2023-04-01T05:14:13.137Z,6.93
2023-04-01T05:19:13.145Z,7
2023-04-01T05:24:13.143Z,6.93
2023-04-01T05:29:13.130Z,7.06
2023-04-01T05:34:13.118Z,7.06
2023-04-01T05:39:13.143Z,7.12
2023-04-01T05:44:13.126Z,7.18
2023-04-01T05:49:13.145Z,7.31
2023-04-01T05:54:13.115Z,7.56
2023-04-01T05:59:13.100Z,7.62
2023-04-01T06:04:13.137Z,8.5
2023-04-01T06:09:13.144Z,8.18
2023-04-01T06:14:13.075Z,8.25
2023-04-01T06:19:13.094Z,9.25
2023-04-01T06:24:13.068Z,9.37
2023-04-01T06:29:13.074Z,10.93
2023-04-01T06:34:13.079Z,9.37
2023-04-01T06:39:13.053Z,10.43
2023-04-01T06:44:13.069Z,10.37
2023-04-01T06:49:13.276Z,10.56
2023-04-01T06:54:13.081Z,11.31
2023-04-01T07:04:13.069Z,11.62
2023-04-01T07:09:13.025Z,12.56
2023-04-01T07:14:13.063Z,12
2023-04-01T07:19:13.042Z,12
2023-04-01T07:24:13.021Z,10.62
2023-04-01T07:29:13.025Z,10.5
2023-04-01T07:34:13.021Z,10.68
2023-04-01T07:39:12.999Z,10.12
2023-04-01T07:44:12.995Z,10.56
2023-04-01T07:49:12.990Z,10.37
2023-04-01T07:54:12.973Z,10.06
2023-04-01T07:59:13.006Z,9.87
2023-04-01T08:04:13.090Z,10.31
2023-04-01T08:09:12.972Z,9.87
2023-04-01T08:14:12.953Z,10.5
2023-04-01T08:19:12.962Z,10.56
2023-04-01T08:24:13.061Z,10.56
2023-04-01T08:29:12.942Z,11.18
2023-04-01T08:34:12.944Z,11.18
2023-04-01T08:39:12.934Z,11.43
2023-04-01T08:44:12.947Z,11.43
2023-04-01T08:49:12.971Z,10.93
2023-04-01T08:54:12.918Z,12.06
2023-04-01T08:59:12.911Z,11.62
2023-04-01T09:04:12.952Z,11.18
2023-04-01T09:09:12.893Z,11.56
2023-04-01T09:14:12.882Z,12.18
2023-04-01T09:19:12.960Z,12
2023-04-01T09:24:12.896Z,11.87
2023-04-01T09:29:12.886Z,12.18
2023-04-01T09:34:12.898Z,12
2023-04-01T09:39:12.902Z,12.31
2023-04-01T09:44:12.882Z,11.81
2023-04-01T09:49:12.886Z,12.87
2023-04-01T09:54:12.846Z,12.62
2023-04-01T09:59:12.849Z,12.93
2023-04-01T10:04:12.858Z,12.18
2023-04-01T10:09:12.828Z,12.12
2023-04-01T10:14:12.843Z,11.93
2023-04-01T10:19:12.826Z,11.56
2023-04-01T10:24:12.820Z,11.81
2023-04-01T10:29:12.812Z,11.62
2023-04-01T10:34:12.801Z,11.68
2023-04-01T10:39:13.381Z,11.5
2023-04-01T10:44:12.832Z,12
2023-04-01T10:49:12.781Z,12
2023-04-01T10:59:12.764Z,11.75
2023-04-01T11:04:12.767Z,11.81
2023-04-01T11:09:12.772Z,12
2023-04-01T11:14:12.764Z,11.62
2023-04-01T11:19:12.851Z,11.75
2023-04-01T11:24:12.757Z,11.62
2023-04-01T11:29:12.739Z,10.56
2023-04-01T11:34:12.744Z,10.43
2023-04-01T11:39:12.745Z,9.93
2023-04-01T11:44:12.727Z,10
2023-04-01T11:49:12.729Z,9.87
2023-04-01T11:54:12.724Z,10.12
2023-04-01T11:59:12.719Z,10
2023-04-01T12:04:12.950Z,10.5
2023-04-01T12:09:12.694Z,10.5
2023-04-01T12:14:12.688Z,10.43
2023-04-01T12:19:12.713Z,10.25
2023-04-01T12:24:12.681Z,10.12
2023-04-01T12:29:12.682Z,9.62
2023-04-01T12:34:12.691Z,9.25
2023-04-01T12:39:12.658Z,9.43
2023-04-01T12:44:12.657Z,9.62
2023-04-01T12:49:12.649Z,10.06
2023-04-01T12:54:12.652Z,8.87
2023-04-01T12:59:12.651Z,9.18
2023-04-01T13:04:12.757Z,9
2023-04-01T13:09:12.651Z,8.87
2023-04-01T13:14:21.530Z,8.68
2023-04-01T13:19:12.630Z,9
2023-04-01T13:24:12.626Z,8.56
2023-04-01T13:29:12.612Z,8.81
2023-04-01T13:34:12.611Z,8.62
2023-04-01T13:39:12.604Z,8.31
2023-04-01T13:44:12.596Z,8.31
2023-04-01T13:49:12.596Z,8.5
2023-04-01T13:54:12.597Z,8.37
2023-04-01T13:59:12.579Z,8.18
2023-04-01T14:04:12.614Z,8
2023-04-01T14:09:12.579Z,8.06
2023-04-01T14:14:12.562Z,8.06
2023-04-01T14:19:12.580Z,7.75
2023-04-01T14:24:12.575Z,7.87
2023-04-01T14:29:12.547Z,7.81
2023-04-01T14:34:12.660Z,7.87
2023-04-01T14:39:12.551Z,8.06
2023-04-01T14:44:12.533Z,8.25
2023-04-01T14:49:12.562Z,8.5
2023-04-01T14:54:12.549Z,8.56
2023-04-01T14:59:12.555Z,8.43
2023-04-01T15:04:12.512Z,8.68
2023-04-01T15:09:12.542Z,8.18
2023-04-01T15:14:12.531Z,8.25
2023-04-01T15:19:12.509Z,8.18
2023-04-01T15:24:12.511Z,8.06
2023-04-01T15:29:12.488Z,8.06
2023-04-01T15:34:12.520Z,8.25
2023-04-01T15:39:12.488Z,8.25
2023-04-01T15:44:12.500Z,8.56
2023-04-01T15:49:12.500Z,8.56
2023-04-01T15:54:12.469Z,8.62
2023-04-01T15:59:12.486Z,8.56
2023-04-01T16:04:12.681Z,8.56
2023-04-01T16:09:12.456Z,8.43
2023-04-01T16:14:12.441Z,8.12
2023-04-01T16:19:12.435Z,8.12
2023-04-01T16:24:12.428Z,8.12
2023-04-01T16:29:12.480Z,8.06
2023-04-01T16:34:12.422Z,7.87
2023-04-01T16:39:12.419Z,8
2023-04-01T16:44:12.409Z,8
2023-04-01T16:49:12.402Z,8.06
2023-04-01T16:54:12.398Z,8.12
2023-04-01T16:59:12.402Z,8
2023-04-01T17:04:12.457Z,7.87
2023-04-01T17:09:12.408Z,7.81
2023-04-01T17:14:12.403Z,7.81
2023-04-01T17:19:12.601Z,7.62
2023-04-01T17:24:12.399Z,7.75
2023-04-01T17:29:12.390Z,7.75
2023-04-01T17:34:12.372Z,7.81
2023-04-01T17:39:12.509Z,7.68
2023-04-01T17:44:12.367Z,7.68
2023-04-01T17:54:12.361Z,7.62
2023-04-01T17:59:12.351Z,7.68
2023-04-01T18:04:12.349Z,7.62
2023-04-01T18:09:12.355Z,7.56
2023-04-01T18:14:12.346Z,7.5
2023-04-01T18:19:12.343Z,7.62
2023-04-01T18:24:12.348Z,7.62
2023-04-01T18:34:12.307Z,7.43
2023-04-01T18:39:12.307Z,7.37
2023-04-01T18:44:12.317Z,7.31
2023-04-01T18:49:12.309Z,7.37
2023-04-01T18:54:12.300Z,7.37
2023-04-01T18:59:12.313Z,7.31
2023-04-01T19:04:12.315Z,7.31
2023-04-01T19:09:12.354Z,7.43
2023-04-01T19:14:12.288Z,7.5
2023-04-01T19:19:12.271Z,7.5
2023-04-01T19:24:12.276Z,7.56
2023-04-01T19:29:12.306Z,7.62
2023-04-01T19:34:12.239Z,7.5
2023-04-01T19:39:12.252Z,7.56
2023-04-01T19:44:12.255Z,7.56
2023-04-01T19:49:12.256Z,7.62
2023-04-01T19:54:12.230Z,7.62
2023-04-01T19:59:12.243Z,7.5
2023-04-01T20:04:12.273Z,7.43
2023-04-01T20:09:12.239Z,7.43
2023-04-01T20:14:12.228Z,7.43
2023-04-01T20:19:12.227Z,7.43
2023-04-01T20:24:12.218Z,7.43
2023-04-01T20:29:12.232Z,7.5
2023-04-01T20:34:12.263Z,7.37
2023-04-01T20:39:39.969Z,7.31
2023-04-01T20:44:12.212Z,7.31
2023-04-01T20:49:12.205Z,7.31
2023-04-01T20:54:12.215Z,7.25
2023-04-01T20:59:12.192Z,7.25
2023-04-01T21:04:12.203Z,7.25
2023-04-01T21:09:12.176Z,7.18
2023-04-01T21:14:12.172Z,7.18
2023-04-01T21:19:12.199Z,7.25
2023-04-01T21:24:12.241Z,7.25
2023-04-01T21:29:12.167Z,7.25
2023-04-01T21:34:12.173Z,7.18
2023-04-01T21:39:12.149Z,7.31
2023-04-01T21:44:12.148Z,7.31
2023-04-01T21:49:12.167Z,7.31
2023-04-01T21:54:12.153Z,7.25
2023-04-01T21:59:12.139Z,7.31
2023-04-01T22:04:12.193Z,7.31
2023-04-01T22:09:12.119Z,7.25
2023-04-01T22:14:12.113Z,7.25
2023-04-01T22:19:12.124Z,7.37
2023-04-01T22:24:12.093Z,7.31
2023-04-01T22:29:12.112Z,7.31
2023-04-01T22:34:12.113Z,7.31
2023-04-01T22:39:12.100Z,7.31
2023-04-01T22:44:12.116Z,7.31
2023-04-01T22:49:12.080Z,7.25
2023-04-01T22:54:12.088Z,7.25
2023-04-01T22:59:12.106Z,7.18
2023-04-01T23:04:12.100Z,7.31
2023-04-01T23:09:12.065Z,7.37
2023-04-01T23:14:12.072Z,7.31
2023-04-01T23:19:12.059Z,7.31
2023-04-01T23:24:12.087Z,7.37
2023-04-01T23:29:12.050Z,7.37
2023-04-01T23:34:12.063Z,7.31
2023-04-01T23:39:12.052Z,7.25
2023-04-01T23:44:12.035Z,7.25
2023-04-01T23:54:12.025Z,7.12
2023-04-01T23:59:12.039Z,7.12
